Randolph, Texas
Current Conditions -  °F | °C
As of 6:53 AM on Saturday 20 Dec 2014 (Local Time) from KTKI Reporting Station
Overcast Overcast  
Wind Chill: 40°   Ceiling: 700
Heat Index: 44°   Visibility: 8mi
Dew Point: 42°   Wind: 7mph
Humidity: 93%   Direction: 360°N
Pressure: 30.24"   Gusts: NA
Location:  33.49°N, 96.25°W
Report Text: KTKI 201253Z 36006KT 8SM OVC007 07/06 A3024 RMK AO2 SLP249 T00670056
Loading
Personal Weather Stations






























Interactive Weather Map New forecast layout! Learn more

10-Day Weather Forecast

Advertisements
Track Severe Weather on mobile